KBKD/BKD METAR and TAF weather

Enter ICAO airport designator
Station Type Date Time Source
KBKD METAR 2019/04/21 21:55 UTC NOAA

KBKD 212155Z AUTO 18017G24KT 5SM HZ CLR 30/13 A2983 RMK AO2 T03020129


Station Type Date Time Source
KBKD Decoded METAR 2019/04/21 21:55 UTC NOAA

Station name not available
Apr 21, 2019 - 05:55 PM EDT / 2019.04.21 2155 UTC
Wind: from the S (180 degrees) at 20 MPH (17 KT) gusting to 28 MPH (24 KT):0
Visibility: 5 mile(s):0
Sky conditions: clear
Weather: haze
Temperature: 86.4 F (30.2 C)
Dew Point: 55.2 F (12.9 C)
Relative Humidity: 34%
Pressure (altimeter): 29.83 in. Hg (1010 hPa)
ob: KBKD 212155Z AUTO 18017G24KT 5SM HZ CLR 30/13 A2983 RMK AO2 T03020129
cycle: 22

Station Type Date Time Source
KBKD TAF UTC NOAA

Error!

Example: see airport list